Scholes International At Galveston Airport
KGLS : rendu visible

Aérodrome :











RETROUVEZ-NOUS SUR...

 
LOGIN :

S'inscrire | Disclaimer

   EN    FR    IT 

 









Légende :    VFR   VFR Marginal   IFR   IFR Intensif   IFR Très Intensif
Visi : 
Plafond : 
>= 8 km
>= 3000ft
5 à 8 km
1000 à 3000 ft
1500m à 5 km
500 à 1000 ft
800 à 1500m
200 à 500 ft
< 800m
< 200 ft
Symboles :   Orages  Brouillard  Fortes neiges  Fortes précipitations  Vent > 20 kt






- Altitude de l'aérodrome : 6 ft
- Code IATA : GLS


KGLS - Scholes International At Galveston

DERNIER METAR :
  • 201552Z 13014KT 10SM FEW003 FEW060 23/19 A3007 RMK AO2 SLP181 T02330194

METARs EXPIRÉS :
  • 201452Z 13010KT 10SM CLR 23/19 A3007 RMK AO2 SLP182 T02280194 51018
  • 201352Z 12010KT 10SM CLR 22/19 A3006 RMK AO2 SLP178 T02170189

TAF KGLS
Valide du 20 à 12h jusqu'au 21 à 12h UTC


201144Z 2012/2112 13009KT P6SM BKN250
FM201400 13013KT P6SM SCT020 BKN250
FM201700 14013G18KT P6SM SCT025 BKN250
FM210200 15014KT P6SM SCT025 BKN250
FM210800 15013KT P6SM BKN020 OVC250



MET'MAP, la Météo Aéronautique d'un coup d'oeil ! - Copyright ORBIFLY Décembre 2007 - Disclaimer

ORBIFLY MET'MAP TEAM :

Programmation & Développement : Alexandra Zaïnal
Conception & Développement : Baudouin d'Aumeries
Co-Programmation & Développement : Marc-Olivier Méhu
Soutien technique & logistique : Manuel Goepfert

Contact : metmap@orbifly.com




SOURCES & CREDITS :

   NOAA       Earth
Advisory